Wayne, OH (43466)

6:53 AM EDT on August 28, 2014 (GMT -0400)
near downtown Bowling Green, OH | Change Station
CLOSE
Current Station
Personal Weather Station
Location: Bowling Green, OH
Elevation: 709 ft
Nearby Weather Stations

Elev 709 ft 41.37 °N, 83.65 °W | Updated 2 minutes ago

Mostly Cloudy
Mostly Cloudy
64.0 °F
Feels Like 64.0 °F
N
0.0
Wind Variable Wind from North
Gusts 5.0 mph

Today
High -- | Low -- °F
--% Chance of Precip.
Yesterday
High -- | Low -- °F
Precip. -- in
6:56 AM 8:13 PM
Waxing Crescent, 7% visible
Pressure 30.13 in
Visibility 10.0 miles
Clouds Overcast 4100 ft
Dew Point 60 °F
Humidity 87%
Rainfall 0.00 in
Snow Depth Not available.
UV 0 out of 12
Pollen 10.00 out of 12
Air Quality Not available.
Flu Activity Not available.
METAR KTDZ 280953Z AUTO 05004KT 10SM OVC041 18/14 A3014 RMK AO2 SLP202 T01830139 TSNO

More Conditions Fewer Conditions

Pressure 30.13 in
Visibility 10.0 miles
Clouds Overcast 4100 ft
Dew Point 60 °F
Humidity 87%
Rainfall 0.00 in
Snow Depth Not available.
UV 0 out of 12
Pollen 10.00 out of 12
Air Quality Not available.
Flu Activity Not available.
METAR KTDZ 280953Z AUTO 05004KT 10SM OVC041 18/14 A3014 RMK AO2 SLP202 T01830139 TSNO

More Conditions Fewer Conditions

10-Day Weather Forecast

Almanac

Astronomy

Aug. 28, 2014 Rise Set
Actual Time 6:56 AM EDT 8:13 PM EDT
Civil Twilight 6:27 AM EDT 8:41 PM EDT
Nautical Twilight 5:53 AM EDT 9:16 PM EDT
Astronomical Twilight 5:17 AM EDT 9:52 PM EDT
Moon 9:50 AM EDT 9:34 PM EDT
Length of Visible Light 14h 14m
Length of Day
13h 16m
Tomorrow will be 2m 37s shorter.
Waxing Crescent, 7% of the Moon is Illuminated
Today
Waxing Crescent
Sep 2
First Quarter
Sep 8
Full
Sep 15
Last Quarter
Sep 24
New

Today's Extremes

State Highs State Lows

Community

WunderPhotos

Upload Photos

1,747,920 photos uploaded!

Nearby

Snow Depth

Station Depth Elevation
No new snow has been reported.

Earthquake Activity

City Distance Mag. Time & Date
No recent earthquake activity has been reported nearby.
Minimum magnitude displayed is 2.5.

Coastal Water Temperatures

Place Temperature
Marblehead, OH 73.9 °F

Nearby Weather Stations